createdAt,value
2023-08-14T00:03:57.081Z,24.04
2023-08-14T00:08:59.605Z,23.94
2023-08-14T00:14:02.960Z,23.88
2023-08-14T00:19:05.788Z,23.79
2023-08-14T00:24:09.032Z,23.69
2023-08-14T00:29:12.154Z,23.69
2023-08-14T00:34:15.279Z,23.66
2023-08-14T00:39:17.781Z,23.64
2023-08-14T00:44:20.260Z,23.54
2023-08-14T00:49:23.290Z,23.38
2023-08-14T00:54:28.725Z,23.24
2023-08-14T00:59:33.600Z,23.06
2023-08-14T01:04:36.030Z,22.93
2023-08-14T01:09:38.829Z,22.75
2023-08-14T01:14:43.105Z,22.55
2023-08-14T01:19:52.578Z,22.46
2023-08-14T01:25:01.180Z,22.37
2023-08-14T01:30:04.665Z,22.31
2023-08-14T01:35:07.971Z,22.26
2023-08-14T01:40:40.965Z,22.22
2023-08-14T01:45:43.582Z,22.25
2023-08-14T01:50:47.946Z,22.21
2023-08-14T01:55:50.774Z,22.02
2023-08-14T02:00:53.303Z,21.93
2023-08-14T02:05:55.684Z,21.78
2023-08-14T02:10:58.800Z,21.61
2023-08-14T02:16:03.680Z,21.49
2023-08-14T02:21:06.207Z,21.37
2023-08-14T02:26:09.752Z,21.40
2023-08-14T02:31:12.216Z,21.32
2023-08-14T02:36:15.466Z,21.34
2023-08-14T02:41:18.470Z,21.32
2023-08-14T02:46:21.741Z,21.28
2023-08-14T02:51:26.297Z,21.25
2023-08-14T02:56:29.126Z,21.21
2023-08-14T03:01:31.681Z,21.26
2023-08-14T03:06:34.194Z,21.26
2023-08-14T03:11:36.635Z,21.29
2023-08-14T03:16:39.201Z,21.25
2023-08-14T03:21:42.828Z,21.25
2023-08-14T03:26:49.834Z,21.27
2023-08-14T03:31:53.905Z,21.28
2023-08-14T03:36:56.376Z,21.34
2023-08-14T03:41:59.530Z,21.41
2023-08-14T03:47:02.736Z,21.45
2023-08-14T03:52:06.029Z,21.52
2023-08-14T03:57:08.606Z,21.61
2023-08-14T04:02:11.080Z,21.68
2023-08-14T04:07:13.621Z,21.85
2023-08-14T04:12:16.421Z,22.02
2023-08-14T04:17:19.042Z,22.25
2023-08-14T04:22:21.640Z,22.37
2023-08-14T04:27:24.225Z,22.49
2023-08-14T04:32:27.038Z,22.57
2023-08-14T04:37:29.514Z,22.59
2023-08-14T04:42:34.912Z,22.66
2023-08-14T04:47:37.377Z,22.57
2023-08-14T04:52:40.630Z,22.43
2023-08-14T04:57:43.506Z,22.25
2023-08-14T05:02:46.462Z,22.09
2023-08-14T05:07:49.114Z,21.93
2023-08-14T05:12:51.729Z,21.80
2023-08-14T05:17:54.880Z,21.76
2023-08-14T05:22:58.025Z,21.79
2023-08-14T05:28:10.775Z,21.77
2023-08-14T05:33:14.596Z,21.86
2023-08-14T05:38:17.856Z,21.99
2023-08-14T05:43:21.104Z,22.19
2023-08-14T05:48:24.366Z,22.38
2023-08-14T05:53:27.696Z,22.49
2023-08-14T05:58:35.876Z,22.58
2023-08-14T06:03:45.304Z,22.77
2023-08-14T06:08:48.356Z,22.96
2023-08-14T06:13:50.937Z,23.01
2023-08-14T06:18:54.525Z,23.06
2023-08-14T06:23:58.497Z,23.10
2023-08-14T06:29:01.607Z,23.23
2023-08-14T06:34:04.480Z,23.20
2023-08-14T06:39:07.661Z,23.11
2023-08-14T06:44:10.501Z,23.23
2023-08-14T06:49:13.894Z,23.35
2023-08-14T06:54:17.214Z,23.67
2023-08-14T06:59:20.303Z,23.98
2023-08-14T07:04:28.013Z,23.92
2023-08-14T07:09:30.600Z,24.04
2023-08-14T07:14:33.816Z,24.67
2023-08-14T07:19:37.284Z,25.81
2023-08-14T07:24:45.662Z,26.58
2023-08-14T07:29:48.536Z,26.85
2023-08-14T07:34:51.330Z,27.50
2023-08-14T07:39:53.872Z,27.82
2023-08-14T07:44:56.716Z,28.18
2023-08-14T07:50:00.566Z,28.64
2023-08-14T07:55:04.025Z,29.31
2023-08-14T08:00:08.973Z,30.05
2023-08-14T08:05:11.758Z,30.36
2023-08-14T08:10:14.960Z,30.40
2023-08-14T08:15:17.811Z,30.79
2023-08-14T08:20:20.391Z,31.35
2023-08-14T08:25:23.029Z,31.52
2023-08-14T08:30:25.715Z,31.31
2023-08-14T08:35:28.192Z,31.28
2023-08-14T08:40:34.438Z,30.97
2023-08-14T08:45:39.351Z,30.87
2023-08-14T08:50:45.595Z,30.87
2023-08-14T08:55:52.319Z,30.75
2023-08-14T09:00:57.583Z,31.27
2023-08-14T09:06:00.960Z,31.50
2023-08-14T09:11:03.567Z,31.19
2023-08-14T09:16:06.192Z,31.71
2023-08-14T09:21:21.939Z,32.27
2023-08-14T09:26:24.783Z,32.47
2023-08-14T09:31:32.366Z,33.19
2023-08-14T09:36:38.129Z,34.15
2023-08-14T09:41:40.609Z,34.76
2023-08-14T09:46:45.573Z,34.99
2023-08-14T09:51:58.705Z,35.32
2023-08-14T09:57:08.521Z,35.59
2023-08-14T10:02:22.614Z,35.96
2023-08-14T10:07:27.313Z,36.08
2023-08-14T10:12:33.760Z,36.37
2023-08-14T10:17:45.415Z,36.59
2023-08-14T10:22:49.042Z,36.49
2023-08-14T10:27:53.132Z,36.16
2023-08-14T10:32:57.081Z,35.94
2023-08-14T10:38:09.520Z,35.79
2023-08-14T10:43:13.668Z,35.86
2023-08-14T10:48:19.005Z,36.18
2023-08-14T10:53:24.035Z,36.41
2023-08-14T10:58:32.732Z,36.07
2023-08-14T11:04:00.474Z,36.04
2023-08-14T11:09:05.690Z,36.19
2023-08-14T11:14:08.609Z,35.85
2023-08-14T11:19:12.364Z,35.62
2023-08-14T11:24:15.361Z,35.75
2023-08-14T11:29:17.850Z,35.46
2023-08-14T11:34:22.467Z,35.31
2023-08-14T11:39:25.419Z,35.19
2023-08-14T11:44:29.090Z,34.88
2023-08-14T11:49:32.606Z,34.49
2023-08-14T11:54:36.829Z,34.31
2023-08-14T11:59:39.855Z,34.04
2023-08-14T12:04:42.321Z,33.62
2023-08-14T12:09:45.659Z,33.49
2023-08-14T12:14:52.650Z,33.75
2023-08-14T12:19:58.918Z,33.81
2023-08-14T12:25:05.826Z,34.19
2023-08-14T12:30:11.769Z,34.33
2023-08-14T12:35:14.614Z,34.22
2023-08-14T12:40:16.936Z,34.76
2023-08-14T12:45:19.362Z,34.96
2023-08-14T12:50:21.860Z,34.83
2023-08-14T12:55:24.706Z,34.39
2023-08-14T13:00:32.235Z,33.69
2023-08-14T13:05:36.321Z,33.35
2023-08-14T13:10:38.802Z,33.13
2023-08-14T13:15:41.339Z,33.06
2023-08-14T13:20:43.836Z,32.99
2023-08-14T13:25:46.339Z,33.01
2023-08-14T13:30:51.442Z,33.38
2023-08-14T13:35:54.298Z,34.07
2023-08-14T13:40:57.070Z,34.38
2023-08-14T13:45:59.645Z,34.59
2023-08-14T13:51:02.323Z,34.42
2023-08-14T13:56:06.215Z,34.13
2023-08-14T14:01:09.495Z,34.55
2023-08-14T14:06:12.293Z,34.56
2023-08-14T14:11:14.790Z,34.71
2023-08-14T14:16:23.921Z,34.72
2023-08-14T14:21:26.416Z,34.62
2023-08-14T14:26:32.014Z,34.44
2023-08-14T14:31:36.682Z,34.11
2023-08-14T14:36:39.484Z,33.81
2023-08-14T14:41:41.983Z,33.58
2023-08-14T14:46:44.408Z,33.40
2023-08-14T14:51:46.850Z,33.40
2023-08-14T14:56:52.045Z,33.30
2023-08-14T15:01:54.530Z,33.31
2023-08-14T15:06:57.311Z,33.31
2023-08-14T15:12:00.584Z,33.19
2023-08-14T15:17:03.093Z,32.88
2023-08-14T15:22:05.543Z,32.81
2023-08-14T15:27:08.067Z,32.65
2023-08-14T15:32:11.262Z,32.49
2023-08-14T15:37:13.874Z,32.44
2023-08-14T15:42:16.350Z,32.36
2023-08-14T15:47:20.084Z,32.23
2023-08-14T15:52:29.399Z,32.00
2023-08-14T15:57:31.936Z,32.00
2023-08-14T16:02:35.848Z,31.91
2023-08-14T16:07:38.789Z,31.82
2023-08-14T16:12:41.511Z,31.57
2023-08-14T16:17:44.222Z,31.26
2023-08-14T16:22:49.419Z,31.19
2023-08-14T16:27:54.963Z,31.19
2023-08-14T16:32:58.087Z,31.23
2023-08-14T16:38:00.665Z,31.18
2023-08-14T16:43:04.290Z,31.05
2023-08-14T16:48:11.503Z,30.88
2023-08-14T16:53:14.674Z,30.72
2023-08-14T16:58:18.905Z,30.61
2023-08-14T17:03:21.814Z,30.49
2023-08-14T17:08:24.448Z,30.38
2023-08-14T17:13:27.742Z,30.29
2023-08-14T17:18:30.848Z,30.20
2023-08-14T17:23:33.484Z,30.11
2023-08-14T17:28:38.771Z,29.98
2023-08-14T17:33:41.183Z,29.84
2023-08-14T17:38:46.201Z,29.75
2023-08-14T17:43:51.208Z,29.63
2023-08-14T17:48:54.400Z,29.52
2023-08-14T17:53:56.942Z,29.40
2023-08-14T17:59:00.563Z,29.30
2023-08-14T18:04:03.161Z,29.23
2023-08-14T18:09:08.878Z,29.14
2023-08-14T18:14:11.398Z,28.99
2023-08-14T18:24:21.908Z,28.86
2023-08-14T18:29:24.498Z,28.76
2023-08-14T18:34:29.970Z,28.72
2023-08-14T18:39:32.603Z,28.65
2023-08-14T18:44:35.105Z,28.58
2023-08-14T18:49:38.059Z,28.48
2023-08-14T18:54:43.104Z,28.25
2023-08-14T18:59:48.855Z,28.11
2023-08-14T19:04:51.528Z,27.97
2023-08-14T19:09:56.712Z,27.91
2023-08-14T19:15:00.789Z,27.76
2023-08-14T19:20:03.588Z,27.75
2023-08-14T19:25:09.321Z,27.70
2023-08-14T19:30:13.204Z,27.64
2023-08-14T19:35:22.784Z,27.56
2023-08-14T19:40:25.559Z,27.38
2023-08-14T19:45:29.140Z,27.27
2023-08-14T19:50:33.953Z,27.09
2023-08-14T19:55:41.025Z,27.01
2023-08-14T20:00:43.572Z,26.91
2023-08-14T20:05:49.165Z,26.82
2023-08-14T20:10:52.114Z,26.74
2023-08-14T20:15:54.682Z,26.68
2023-08-14T20:20:57.514Z,26.54
2023-08-14T20:25:59.911Z,26.54
2023-08-14T20:31:02.543Z,26.39
2023-08-14T20:36:05.339Z,26.38
2023-08-14T20:41:07.900Z,26.27
2023-08-14T20:46:10.377Z,26.29
2023-08-14T20:51:13.238Z,26.22
2023-08-14T20:56:15.762Z,26.18
2023-08-14T21:01:18.956Z,26.23
2023-08-14T21:06:22.134Z,26.28
2023-08-14T21:11:24.637Z,26.29
2023-08-14T21:16:30.525Z,26.25
2023-08-14T21:21:36.301Z,26.15
2023-08-14T21:26:39.687Z,26.06
2023-08-14T21:31:42.747Z,26.00
2023-08-14T21:36:45.411Z,25.89
2023-08-14T21:41:48.930Z,25.80
2023-08-14T21:46:51.593Z,25.75
2023-08-14T21:51:57.503Z,25.72
2023-08-14T21:57:01.346Z,25.65
2023-08-14T22:02:03.999Z,25.58
2023-08-14T22:07:07.175Z,25.43
2023-08-14T22:12:10.243Z,25.31
2023-08-14T22:17:15.405Z,25.19
2023-08-14T22:22:18.470Z,25.12
2023-08-14T22:27:21.179Z,25.06
2023-08-14T22:32:23.917Z,25.02
2023-08-14T22:37:29.199Z,25.04
2023-08-14T22:42:31.812Z,24.97
2023-08-14T22:47:37.573Z,24.94
2023-08-14T22:52:41.497Z,24.88
2023-08-14T22:57:44.706Z,24.80
2023-08-14T23:02:47.221Z,24.70
2023-08-14T23:08:01.073Z,24.61
2023-08-14T23:13:05.887Z,24.54
2023-08-14T23:18:09.095Z,24.46
2023-08-14T23:23:12.241Z,24.43
2023-08-14T23:28:15.451Z,24.38
2023-08-14T23:33:17.969Z,24.33
2023-08-14T23:38:23.005Z,24.29
2023-08-14T23:43:25.501Z,24.19
2023-08-14T23:48:28.877Z,24.19
2023-08-14T23:53:39.085Z,24.13
2023-08-14T23:58:41.520Z,24.05
